Time;durP1;ratioP1;P1;durP2;ratioP2;P2;SDS_P1;SDS_P2;PMS_P1;PMS_P2;Temp;Humidity;BMP_temperature;BMP_pressure;BME280_temperature;BME280_humidity;BME280_pressure;Samples;Min_cycle;Max_cycle;Signal;HPM_P1;HPM_P2
2022/09/09 00:00:51;;;;;;;2.00;1.37;;;19.70;69.50;;;;;;7388261;19;20440;-55
2022/09/09 00:03:29;;;;;;;1.33;0.90;;;19.40;70.00;;;;;;7387464;19;20371;-55
2022/09/09 00:06:07;;;;;;;2.73;1.07;;;19.40;70.50;;;;;;7388685;19;20387;-56
2022/09/09 00:08:47;;;;;;;4.67;1.13;;;19.50;69.70;;;;;;7386806;19;20383;-55
2022/09/09 00:11:21;;;;;;;1.60;1.00;;;19.40;67.70;;;;;;7388388;19;20372;-55
2022/09/09 00:13:54;;;;;;;2.43;1.20;;;19.40;67.20;;;;;;7387450;19;20410;-55
2022/09/09 00:16:27;;;;;;;2.20;0.80;;;19.50;67.30;;;;;;7388740;19;20372;-55
2022/09/09 00:19:04;;;;;;;3.40;1.13;;;19.50;67.00;;;;;;7388453;19;20938;-56
2022/09/09 00:21:36;;;;;;;2.50;1.30;;;19.60;67.20;;;;;;7388927;19;20383;-54
2022/09/09 00:24:14;;;;;;;2.73;1.30;;;19.70;67.10;;;;;;7387442;19;20373;-55
2022/09/09 00:26:47;;;;;;;1.60;1.10;;;19.70;66.50;;;;;;7387679;19;20439;-55
2022/09/09 00:29:25;;;;;;;2.87;0.80;;;19.70;66.60;;;;;;7389769;19;20704;-55
2022/09/09 00:31:59;;;;;;;4.37;1.10;;;19.70;65.50;;;;;;7389634;19;20404;-55
2022/09/09 00:34:29;;;;;;;1.40;0.70;;;19.60;66.20;;;;;;7387601;19;20368;-55
2022/09/09 00:36:59;;;;;;;1.80;1.03;;;19.60;66.00;;;;;;7387997;19;20392;-55
2022/09/09 00:39:41;;;;;;;1.20;0.80;;;19.70;65.30;;;;;;7386794;19;20372;-55
2022/09/09 00:42:18;;;;;;;2.43;0.83;;;19.80;64.40;;;;;;7387289;19;20377;-55
2022/09/09 00:44:57;;;;;;;2.47;1.33;;;19.80;64.80;;;;;;7389032;19;20376;-55
2022/09/09 00:47:47;;;;;;;1.30;0.80;;;19.90;64.60;;;;;;7387521;19;20376;-55
2022/09/09 00:50:37;;;;;;;3.00;0.97;;;19.90;63.70;;;;;;7386822;19;20954;-56
2022/09/09 00:53:18;;;;;;;3.27;1.30;;;20.00;64.80;;;;;;7388010;19;20380;-55
2022/09/09 00:55:56;;;;;;;1.90;1.07;;;20.00;63.30;;;;;;7387999;19;20779;-55
2022/09/09 00:58:27;;;;;;;2.47;1.00;;;19.90;63.00;;;;;;7386550;19;20372;-55
2022/09/09 01:01:04;;;;;;;2.83;1.23;;;19.90;63.30;;;;;;7385908;19;20420;-55
2022/09/09 01:03:38;;;;;;;3.87;0.80;;;20.00;63.00;;;;;;7384526;19;20394;-55
2022/09/09 01:06:23;;;;;;;4.30;0.90;;;20.00;62.90;;;;;;7384687;19;20388;-55
2022/09/09 01:09:10;;;;;;;1.90;1.13;;;20.00;62.40;;;;;;7384048;19;20413;-56
2022/09/09 01:11:52;;;;;;;2.90;1.13;;;20.10;62.50;;;;;;7388192;19;20376;-55
2022/09/09 01:14:33;;;;;;;1.63;0.90;;;20.00;62.30;;;;;;7386496;19;20399;-55
2022/09/09 01:17:07;;;;;;;2.30;0.97;;;20.00;61.90;;;;;;7386236;19;20730;-56
2022/09/09 01:19:55;;;;;;;4.53;1.50;;;19.90;62.40;;;;;;7385749;19;20953;-55
2022/09/09 01:22:36;;;;;;;1.37;0.70;;;19.80;62.70;;;;;;7385790;19;20380;-55
2022/09/09 01:25:31;;;;;;;4.40;0.90;;;19.80;62.80;;;;;;7386740;19;20376;-55
2022/09/09 01:28:23;;;;;;;1.57;0.80;;;19.90;62.80;;;;;;7384743;19;20380;-55
2022/09/09 01:30:55;;;;;;;2.20;0.80;;;19.90;62.70;;;;;;7386737;19;20740;-55
2022/09/09 01:33:30;;;;;;;1.00;0.60;;;19.90;62.30;;;;;;7386749;19;20384;-55
2022/09/09 01:36:07;;;;;;;1.57;0.70;;;19.90;62.40;;;;;;7386347;19;20802;-55
2022/09/09 01:38:43;;;;;;;1.00;0.90;;;20.00;62.80;;;;;;7386443;19;20356;-55
2022/09/09 01:41:12;;;;;;;4.20;1.10;;;20.00;62.80;;;;;;7385899;19;20371;-55
2022/09/09 01:43:57;;;;;;;1.80;1.00;;;20.00;62.60;;;;;;7383077;19;20740;-55
2022/09/09 01:46:29;;;;;;;1.40;0.87;;;20.00;63.00;;;;;;7386537;19;20426;-56
2022/09/09 01:48:59;;;;;;;2.60;0.57;;;20.00;61.90;;;;;;7384911;19;20383;-55
2022/09/09 01:51:30;;;;;;;2.73;0.80;;;20.00;62.10;;;;;;7386029;19;20384;-55
2022/09/09 01:54:19;;;;;;;1.80;0.80;;;20.00;62.50;;;;;;7383809;19;20445;-55
2022/09/09 01:57:00;;;;;;;1.63;0.70;;;20.00;62.60;;;;;;7384287;19;20392;-56
2022/09/09 01:59:56;;;;;;;1.70;0.83;;;19.90;62.60;;;;;;7384089;19;20862;-56
2022/09/09 02:02:32;;;;;;;2.07;0.97;;;20.00;62.60;;;;;;7382420;19;20825;-55
2022/09/09 02:05:21;;;;;;;0.80;0.70;;;19.80;63.20;;;;;;7384311;19;20397;-56
2022/09/09 02:07:54;;;;;;;2.73;0.90;;;19.80;63.40;;;;;;7383123;19;20428;-55
2022/09/09 02:10:47;;;;;;;2.17;0.90;;;19.80;63.50;;;;;;7384938;19;20388;-55
2022/09/09 02:13:28;;;;;;;1.97;1.10;;;19.60;64.40;;;;;;7383478;19;20471;-55
2022/09/09 02:16:05;;;;;;;1.60;1.10;;;19.40;64.60;;;;;;7384683;19;20391;-54
2022/09/09 02:18:41;;;;;;;1.27;0.80;;;19.50;65.00;;;;;;7383930;19;20384;-55
2022/09/09 02:21:14;;;;;;;1.77;1.00;;;19.40;65.10;;;;;;7385305;19;20379;-55
2022/09/09 02:23:46;;;;;;;1.47;1.10;;;19.50;65.10;;;;;;7381827;19;20394;-55
2022/09/09 02:26:21;;;;;;;1.50;0.90;;;19.50;65.00;;;;;;7383588;19;20376;-56
2022/09/09 02:28:59;;;;;;;2.07;0.70;;;19.70;64.50;;;;;;7383119;19;20382;-55
2022/09/09 02:31:31;;;;;;;2.57;1.00;;;19.70;64.80;;;;;;7382802;19;20394;-48
2022/09/09 02:34:08;;;;;;;1.60;0.80;;;19.70;64.40;;;;;;7380777;19;20383;-49
2022/09/09 02:36:39;;;;;;;3.30;1.10;;;19.70;64.70;;;;;;7382736;19;20387;-48
2022/09/09 02:39:10;;;;;;;2.47;0.80;;;19.70;65.20;;;;;;7382280;19;20399;-48
2022/09/09 02:41:43;;;;;;;1.73;0.90;;;19.70;65.80;;;;;;7382451;19;21479;-47
2022/09/09 02:44:15;;;;;;;3.53;1.07;;;19.50;66.40;;;;;;7381547;19;20425;-48
2022/09/09 02:47:07;;;;;;;4.27;0.87;;;19.50;66.70;;;;;;7383809;19;20924;-48
2022/09/09 02:49:52;;;;;;;4.13;0.97;;;19.50;66.90;;;;;;7384015;19;21056;-48
2022/09/09 02:52:28;;;;;;;1.13;0.80;;;19.50;66.40;;;;;;7382925;19;20376;-48
2022/09/09 02:55:06;;;;;;;2.87;0.90;;;19.50;66.80;;;;;;7382582;19;20372;-48
2022/09/09 02:57:40;;;;;;;3.33;1.03;;;19.50;67.00;;;;;;7384749;19;20917;-47
2022/09/09 03:00:14;;;;;;;1.77;0.73;;;19.50;67.10;;;;;;7384175;19;20380;-48
2022/09/09 03:02:47;;;;;;;0.87;0.70;;;19.50;67.50;;;;;;7383079;19;20733;-48
2022/09/09 03:05:16;;;;;;;2.50;0.87;;;19.50;67.30;;;;;;7384492;19;20387;-48
2022/09/09 03:07:46;;;;;;;1.07;0.70;;;19.50;67.60;;;;;;7383262;19;20396;-49
2022/09/09 03:10:15;;;;;;;2.10;0.70;;;19.50;68.00;;;;;;7382209;19;20387;-48
2022/09/09 03:12:45;;;;;;;0.60;0.50;;;19.50;67.40;;;;;;7381879;19;20421;-47
2022/09/09 03:15:15;;;;;;;1.50;0.77;;;19.40;67.50;;;;;;7382673;19;20923;-47
2022/09/09 03:17:47;;;;;;;6.47;0.83;;;19.30;68.00;;;;;;7382703;19;20364;-47
2022/09/09 03:20:17;;;;;;;19.53;2.83;;;19.00;68.60;;;;;;7383361;19;20384;-47
2022/09/09 03:22:47;;;;;;;3.23;0.87;;;18.80;69.70;;;;;;7381739;19;20380;-47
2022/09/09 03:25:17;;;;;;;2.87;0.97;;;18.80;70.10;;;;;;7383057;19;20762;-47
2022/09/09 03:27:47;;;;;;;1.33;0.73;;;18.70;70.60;;;;;;7382229;19;20372;-47
2022/09/09 03:30:17;;;;;;;1.90;0.80;;;18.70;70.80;;;;;;7383475;19;20958;-55
2022/09/09 03:32:49;;;;;;;1.63;0.50;;;18.80;70.30;;;;;;7382504;19;20408;-55
2022/09/09 03:35:19;;;;;;;7.23;0.80;;;18.80;70.70;;;;;;7383422;19;20436;-54
2022/09/09 03:37:49;;;;;;;1.77;0.77;;;18.80;70.70;;;;;;7382196;19;20720;-56
2022/09/09 03:40:19;;;;;;;2.53;1.10;;;18.80;70.10;;;;;;7382212;19;20379;-55
2022/09/09 03:42:49;;;;;;;4.50;0.90;;;18.70;70.80;;;;;;7381509;19;20413;-56
2022/09/09 03:45:20;;;;;;;1.67;0.73;;;18.70;70.60;;;;;;7381452;19;22307;-55
2022/09/09 03:47:56;;;;;;;1.87;0.90;;;18.70;70.20;;;;;;7381978;19;20420;-55
2022/09/09 03:50:27;;;;;;;0.70;0.40;;;18.70;69.40;;;;;;7381738;19;20417;-56
2022/09/09 03:52:56;;;;;;;0.70;0.40;;;18.80;69.20;;;;;;7388115;19;20388;-55
2022/09/09 03:55:25;;;;;;;1.00;0.60;;;18.90;69.20;;;;;;7389760;19;20943;-55
2022/09/09 03:57:55;;;;;;;2.07;0.90;;;19.00;68.80;;;;;;7390657;19;20380;-54
2022/09/09 04:00:26;;;;;;;1.83;0.60;;;18.90;68.90;;;;;;7387880;19;21006;-54
2022/09/09 04:03:00;;;;;;;0.57;0.53;;;18.90;69.60;;;;;;7389952;19;20473;-56
2022/09/09 04:05:30;;;;;;;1.77;0.60;;;18.90;68.90;;;;;;7389211;19;20723;-55
2022/09/09 04:07:59;;;;;;;1.67;0.77;;;18.90;69.20;;;;;;7388328;19;20399;-55
2022/09/09 04:10:29;;;;;;;4.50;1.27;;;19.00;69.00;;;;;;7388877;19;20405;-55
2022/09/09 04:12:59;;;;;;;3.87;1.00;;;19.00;69.00;;;;;;7388394;19;20440;-55
2022/09/09 04:15:30;;;;;;;3.70;0.60;;;19.00;69.10;;;;;;7388208;19;20372;-55
2022/09/09 04:18:02;;;;;;;1.80;1.10;;;18.90;69.90;;;;;;7388357;19;20376;-55
2022/09/09 04:20:31;;;;;;;1.53;1.10;;;18.60;71.30;;;;;;7387805;19;20921;-55
2022/09/09 04:23:01;;;;;;;1.00;0.90;;;18.40;72.60;;;;;;7387434;19;20399;-54
2022/09/09 04:25:30;;;;;;;7.90;0.90;;;18.00;74.10;;;;;;7387952;19;20372;-55
2022/09/09 04:28:00;;;;;;;1.00;0.60;;;17.80;75.40;;;;;;7387726;19;20918;-55
2022/09/09 04:30:31;;;;;;;1.77;0.87;;;17.70;76.60;;;;;;7388321;19;20376;-55
2022/09/09 04:33:03;;;;;;;2.87;0.97;;;17.70;77.50;;;;;;7388428;19;20992;-55
2022/09/09 04:35:33;;;;;;;4.23;1.30;;;17.80;77.20;;;;;;7386429;19;20407;-55
2022/09/09 04:38:02;;;;;;;2.30;0.73;;;17.80;77.00;;;;;;7388107;19;20378;-55
2022/09/09 04:40:34;;;;;;;2.33;1.23;;;17.90;77.30;;;;;;7387407;19;20439;-55
2022/09/09 04:43:05;;;;;;;3.63;1.13;;;17.90;76.60;;;;;;7387218;19;20380;-55
2022/09/09 04:45:37;;;;;;;8.53;1.90;;;18.00;76.50;;;;;;7387609;19;20377;-55
2022/09/09 04:48:09;;;;;;;5.90;1.30;;;18.00;76.10;;;;;;7387983;19;20736;-55
2022/09/09 04:50:40;;;;;;;2.97;1.10;;;18.00;75.90;;;;;;7387914;19;20466;-55
2022/09/09 04:53:10;;;;;;;4.23;1.10;;;18.00;76.20;;;;;;7386436;19;20376;-55
2022/09/09 04:55:41;;;;;;;3.67;1.50;;;18.20;75.90;;;;;;7385888;19;20384;-55
2022/09/09 04:58:13;;;;;;;2.47;1.30;;;18.40;75.00;;;;;;7387068;19;20463;-55
2022/09/09 05:00:43;;;;;;;1.70;1.30;;;18.60;74.10;;;;;;7384996;19;20428;-55
2022/09/09 05:03:16;;;;;;;2.67;1.20;;;18.70;72.90;;;;;;7383901;19;20385;-55
2022/09/09 05:05:45;;;;;;;3.07;1.50;;;18.70;73.10;;;;;;7385638;19;20392;-55
2022/09/09 05:08:15;;;;;;;2.53;1.43;;;18.70;73.20;;;;;;7385190;19;20388;-55
2022/09/09 05:10:44;;;;;;;1.43;1.00;;;18.60;73.30;;;;;;7386083;19;20416;-54
2022/09/09 05:13:15;;;;;;;1.83;1.00;;;18.50;74.20;;;;;;7385654;19;20761;-56
2022/09/09 05:15:45;;;;;;;4.10;1.00;;;18.60;74.60;;;;;;7386179;19;20398;-55
2022/09/09 05:18:17;;;;;;;1.53;1.07;;;18.70;73.30;;;;;;7387056;19;20416;-55
2022/09/09 05:20:47;;;;;;;2.07;1.13;;;18.80;72.80;;;;;;7385651;19;20435;-55
2022/09/09 05:23:16;;;;;;;4.80;2.07;;;18.90;72.40;;;;;;7385204;19;20404;-55
2022/09/09 05:25:46;;;;;;;2.23;1.00;;;19.10;72.10;;;;;;7387019;19;20428;-55
2022/09/09 05:28:17;;;;;;;1.30;0.90;;;19.20;71.50;;;;;;7385376;19;20451;-55
2022/09/09 05:30:46;;;;;;;1.67;1.20;;;19.30;70.50;;;;;;7386465;19;20923;-55
2022/09/09 05:33:18;;;;;;;2.60;1.27;;;19.20;71.00;;;;;;7385876;19;20824;-55
2022/09/09 05:35:48;;;;;;;3.80;0.90;;;19.30;70.30;;;;;;7386402;19;20368;-55
2022/09/09 05:38:18;;;;;;;6.80;2.10;;;19.40;70.30;;;;;;7385394;19;20526;-55
2022/09/09 05:40:51;;;;;;;4.03;1.53;;;19.50;70.30;;;;;;7385851;19;20459;-47
2022/09/09 05:43:22;;;;;;;3.83;1.77;;;19.40;70.60;;;;;;7384909;19;20890;-48
2022/09/09 05:46:02;;;;;;;2.07;0.90;;;19.40;70.80;;;;;;7385373;19;20369;-49
2022/09/09 05:48:37;;;;;;;2.93;1.37;;;19.50;70.70;;;;;;7385569;19;20381;-48
2022/09/09 05:51:12;;;;;;;4.83;1.57;;;19.40;71.20;;;;;;7385017;19;20740;-47
2022/09/09 05:53:42;;;;;;;3.27;1.53;;;19.40;71.10;;;;;;7385301;19;20788;-48
2022/09/09 05:56:14;;;;;;;3.07;1.00;;;19.30;71.60;;;;;;7385151;19;20376;-47
2022/09/09 05:58:46;;;;;;;2.17;1.10;;;19.40;71.30;;;;;;7385922;19;20942;-47
2022/09/09 06:01:19;;;;;;;2.40;0.90;;;19.40;70.80;;;;;;7383489;19;20431;-48
2022/09/09 06:03:53;;;;;;;1.80;1.30;;;19.20;71.80;;;;;;7384962;19;20380;-48
2022/09/09 06:06:25;;;;;;;1.17;0.80;;;19.40;71.40;;;;;;7385248;19;20419;-48
2022/09/09 06:08:59;;;;;;;3.77;1.17;;;19.60;70.80;;;;;;7383174;19;20396;-48
2022/09/09 06:11:35;;;;;;;2.57;0.97;;;19.70;69.90;;;;;;7384523;19;20906;-55
2022/09/09 06:14:06;;;;;;;2.60;1.10;;;19.60;70.40;;;;;;7384646;19;20387;-55
2022/09/09 06:16:37;;;;;;;1.50;0.97;;;19.70;70.30;;;;;;7385421;19;20407;-56
2022/09/09 06:19:12;;;;;;;2.77;1.27;;;19.80;70.50;;;;;;7383506;19;20371;-56
2022/09/09 06:21:42;;;;;;;3.13;1.10;;;19.80;71.20;;;;;;7384493;19;20954;-56
2022/09/09 06:24:17;;;;;;;2.10;1.13;;;19.60;71.20;;;;;;7383973;19;20938;-55
2022/09/09 06:26:47;;;;;;;4.00;1.30;;;19.70;71.10;;;;;;7383759;19;20789;-55
2022/09/09 06:29:22;;;;;;;2.10;1.20;;;19.80;70.90;;;;;;7383364;19;20405;-55
2022/09/09 06:31:51;;;;;;;2.40;1.17;;;19.80;71.00;;;;;;7387313;19;20388;-54
2022/09/09 06:34:27;;;;;;;8.40;1.00;;;19.60;71.50;;;;;;7384109;19;20862;-56
2022/09/09 06:36:59;;;;;;;2.73;1.20;;;19.40;73.10;;;;;;7384444;19;20378;-56
2022/09/09 06:39:34;;;;;;;2.03;1.07;;;19.40;73.40;;;;;;7382863;19;21245;-55
2022/09/09 06:42:04;;;;;;;1.77;1.20;;;19.40;73.60;;;;;;7384473;19;20910;-48
2022/09/09 06:44:54;;;;;;;2.03;1.30;;;19.40;74.00;;;;;;7382630;19;20476;-48
2022/09/09 06:47:33;;;;;;;2.07;1.03;;;19.50;73.20;;;;;;7384329;19;20383;-48
2022/09/09 06:50:07;;;;;;;3.53;1.67;;;19.50;73.20;;;;;;7383276;19;20377;-48
2022/09/09 06:52:38;;;;;;;3.80;1.30;;;19.70;72.90;;;;;;7384214;19;20788;-48
2022/09/09 06:55:09;;;;;;;2.90;1.10;;;19.90;72.40;;;;;;7383560;19;20408;-48
2022/09/09 06:57:39;;;;;;;2.07;1.40;;;20.00;72.10;;;;;;7383877;19;20382;-48
2022/09/09 07:00:16;;;;;;;3.53;1.07;;;20.20;71.30;;;;;;7380921;19;20799;-48
2022/09/09 07:02:46;;;;;;;3.33;1.50;;;20.30;70.50;;;;;;7384902;19;20363;-48
2022/09/09 07:05:19;;;;;;;1.80;1.20;;;20.40;70.20;;;;;;7381676;19;20456;-48
2022/09/09 07:07:50;;;;;;;3.30;0.90;;;20.50;71.20;;;;;;7382363;19;20387;-48
2022/09/09 07:10:22;;;;;;;5.43;1.70;;;20.60;70.00;;;;;;7382876;19;20412;-48
2022/09/09 07:12:54;;;;;;;3.27;1.83;;;20.60;69.50;;;;;;7383195;19;20384;-48
2022/09/09 07:15:27;;;;;;;3.17;1.60;;;20.60;69.60;;;;;;7382706;19;20479;-48
2022/09/09 07:17:57;;;;;;;4.63;1.10;;;20.60;70.20;;;;;;7381261;19;20953;-48
2022/09/09 07:20:29;;;;;;;2.13;1.07;;;20.70;70.10;;;;;;7380052;19;20380;-48
2022/09/09 07:23:01;;;;;;;2.27;1.40;;;20.70;69.40;;;;;;7382524;19;20371;-48
2022/09/09 07:25:30;;;;;;;2.77;1.13;;;20.60;69.70;;;;;;7380816;19;20380;-48
2022/09/09 07:28:00;;;;;;;1.90;1.00;;;20.70;70.50;;;;;;7388470;19;20367;-48
2022/09/09 07:30:30;;;;;;;6.03;1.87;;;20.80;68.80;;;;;;7391225;19;20380;-48
2022/09/09 07:33:03;;;;;;;8.37;1.80;;;20.80;69.20;;;;;;7389665;19;20460;-48
2022/09/09 07:35:36;;;;;;;2.40;1.37;;;20.80;68.90;;;;;;7390187;19;20910;-48
2022/09/09 07:38:07;;;;;;;4.20;1.10;;;20.90;69.00;;;;;;7389640;19;20368;-48
2022/09/09 07:40:37;;;;;;;2.30;1.20;;;21.00;68.00;;;;;;7389125;19;20376;-48
2022/09/09 07:43:07;;;;;;;1.97;1.00;;;21.10;67.90;;;;;;7389787;19;20378;-48
2022/09/09 07:45:37;;;;;;;1.90;0.90;;;21.30;67.40;;;;;;7387486;19;20392;-48
2022/09/09 07:48:08;;;;;;;2.43;1.10;;;21.40;66.70;;;;;;7390330;19;20759;-48
2022/09/09 07:50:40;;;;;;;3.57;1.23;;;21.70;65.80;;;;;;7390351;19;20368;-56
2022/09/09 07:53:09;;;;;;;2.00;1.17;;;21.90;64.80;;;;;;7389823;19;20387;-56
2022/09/09 07:55:39;;;;;;;7.10;1.37;;;21.90;64.70;;;;;;7388938;19;20789;-56
2022/09/09 07:58:08;;;;;;;3.07;1.27;;;21.90;64.40;;;;;;7389534;19;20728;-58
2022/09/09 08:00:43;;;;;;;3.00;1.70;;;22.00;64.80;;;;;;7387042;19;20427;-56
2022/09/09 08:03:13;;;;;;;4.17;2.17;;;22.10;64.40;;;;;;7388079;19;20367;-56
2022/09/09 08:05:45;;;;;;;1.20;0.70;;;22.10;64.20;;;;;;7387993;19;20383;-56
2022/09/09 08:08:16;;;;;;;1.53;1.03;;;22.20;63.90;;;;;;7387169;19;20395;-56
2022/09/09 08:10:46;;;;;;;3.30;1.13;;;22.40;63.20;;;;;;7389133;19;20376;-56
2022/09/09 08:13:17;;;;;;;4.87;0.87;;;22.40;62.40;;;;;;7388158;19;20384;-57
2022/09/09 08:15:46;;;;;;;2.33;1.00;;;22.50;62.60;;;;;;7389862;19;20382;-57
2022/09/09 08:18:16;;;;;;;2.77;1.30;;;22.50;61.60;;;;;;7387689;19;20368;-57
2022/09/09 08:20:49;;;;;;;1.50;1.17;;;22.50;60.80;;;;;;7387876;19;20380;-57
2022/09/09 08:23:19;;;;;;;2.87;1.17;;;22.40;61.10;;;;;;7388193;19;20409;-57
2022/09/09 08:25:49;;;;;;;5.27;1.20;;;22.60;61.70;;;;;;7386649;19;20763;-57
2022/09/09 08:28:19;;;;;;;4.03;1.73;;;22.90;61.30;;;;;;7387993;19;20408;-57
2022/09/09 08:30:49;;;;;;;3.03;1.00;;;23.30;59.90;;;;;;7388376;19;20863;-57
2022/09/09 08:33:19;;;;;;;2.30;1.00;;;23.80;59.00;;;;;;7389808;19;20885;-57
2022/09/09 08:35:55;;;;;;;2.10;1.00;;;24.30;58.60;;;;;;7388002;19;20425;-57
2022/09/09 08:38:26;;;;;;;1.43;0.90;;;24.70;57.60;;;;;;7388175;19;20380;-57
2022/09/09 08:41:06;;;;;;;2.17;1.10;;;24.80;56.90;;;;;;7388753;19;20372;-57
2022/09/09 08:43:36;;;;;;;4.00;1.00;;;25.30;56.10;;;;;;7387949;19;20439;-57
2022/09/09 08:46:14;;;;;;;4.10;2.20;;;25.50;54.70;;;;;;7385020;19;20654;-57
2022/09/09 08:48:54;;;;;;;3.77;1.77;;;25.80;53.80;;;;;;7387531;19;20930;-57
2022/09/09 08:51:30;;;;;;;3.93;1.10;;;25.90;52.90;;;;;;7387458;19;20428;-49
2022/09/09 08:54:02;;;;;;;4.60;1.97;;;26.20;52.30;;;;;;7386593;19;20383;-49
2022/09/09 08:56:35;;;;;;;2.83;1.20;;;26.60;51.90;;;;;;7388000;19;20387;-49
2022/09/09 08:59:07;;;;;;;4.10;0.77;;;26.90;51.40;;;;;;7387618;19;20368;-49
2022/09/09 09:01:56;;;;;;;4.03;0.80;;;27.30;50.70;;;;;;7384407;19;20438;-49
2022/09/09 09:05:16;;;;;;;2.97;0.97;;;27.30;48.80;;;;;;7383614;19;20918;-49
2022/09/09 09:08:06;;;;;;;2.40;0.93;;;27.30;48.40;;;;;;7387409;19;20467;-50
2022/09/09 09:10:47;;;;;;;3.53;1.97;;;27.30;47.80;;;;;;7386222;19;20384;-49
2022/09/09 09:13:23;;;;;;;3.63;0.87;;;26.90;47.50;;;;;;7386691;19;20799;-48
2022/09/09 09:16:00;;;;;;;1.30;0.70;;;26.00;48.80;;;;;;7387215;19;20380;-47
2022/09/09 09:18:30;;;;;;;2.10;0.90;;;25.50;49.70;;;;;;7385257;19;20364;-48
2022/09/09 09:21:10;;;;;;;1.43;0.90;;;25.00;50.40;;;;;;7386669;19;20401;-55
2022/09/09 09:23:51;;;;;;;3.30;1.23;;;24.70;51.60;;;;;;7386037;19;20961;-55
2022/09/09 09:26:24;;;;;;;2.43;0.77;;;24.40;52.90;;;;;;7383916;19;20388;-56
2022/09/09 09:28:58;;;;;;;2.20;1.00;;;24.00;56.90;;;;;;7385447;19;20950;-56
2022/09/09 09:31:28;;;;;;;2.50;0.90;;;23.30;59.70;;;;;;7386401;19;20388;-56
2022/09/09 09:33:59;;;;;;;3.97;1.20;;;23.00;59.10;;;;;;7385365;19;20479;-55
2022/09/09 09:36:37;;;;;;;4.30;0.80;;;22.80;64.80;;;;;;7385687;19;20788;-55
2022/09/09 09:39:10;;;;;;;2.27;0.60;;;22.00;74.60;;;;;;7385284;19;20375;-56
2022/09/09 09:41:45;;;;;;;2.70;0.60;;;21.60;73.30;;;;;;7384771;19;20378;-57
2022/09/09 09:44:28;;;;;;;2.50;0.80;;;21.70;78.10;;;;;;7384389;19;20384;-57
2022/09/09 09:47:10;;;;;;;2.00;0.73;;;22.70;70.90;;;;;;7385573;19;20392;-54
2022/09/09 09:49:55;;;;;;;0.80;0.50;;;24.30;66.10;;;;;;7384327;19;20376;-55
2022/09/09 09:52:28;;;;;;;2.20;0.83;;;25.50;58.90;;;;;;7384902;19;20928;-54
2022/09/09 09:55:02;;;;;;;1.43;0.70;;;26.40;53.80;;;;;;7384817;19;20398;-54
2022/09/09 09:57:34;;;;;;;2.23;0.70;;;27.20;53.80;;;;;;7385921;19;20824;-54
2022/09/09 10:00:17;;;;;;;1.17;0.70;;;27.50;52.00;;;;;;7383080;19;20937;-54
2022/09/09 10:02:53;;;;;;;1.93;0.57;;;28.10;50.00;;;;;;7384423;19;20372;-55
2022/09/09 10:05:28;;;;;;;1.50;0.93;;;28.40;49.10;;;;;;7383716;19;20384;-55
2022/09/09 10:08:08;;;;;;;2.73;0.83;;;28.70;48.50;;;;;;7384320;19;20484;-55
2022/09/09 10:10:55;;;;;;;1.97;0.93;;;29.10;46.50;;;;;;7386572;19;20424;-55
2022/09/09 10:13:32;;;;;;;3.23;0.90;;;29.60;46.10;;;;;;7386175;19;20965;-55
2022/09/09 10:16:21;;;;;;;2.60;0.80;;;29.80;45.70;;;;;;7384712;19;20399;-55
2022/09/09 10:19:01;;;;;;;2.90;0.97;;;29.70;45.80;;;;;;7384212;19;20372;-55
2022/09/09 10:21:57;;;;;;;2.10;0.87;;;30.10;46.20;;;;;;7384939;19;20380;-55
2022/09/09 10:24:59;;;;;;;2.70;0.80;;;30.00;45.80;;;;;;7383545;19;20383;-55
2022/09/09 10:27:40;;;;;;;3.10;0.90;;;30.30;44.40;;;;;;7382973;19;20411;-55
2022/09/09 10:30:17;;;;;;;1.67;0.80;;;30.00;45.00;;;;;;7384835;19;20376;-55
2022/09/09 10:32:53;;;;;;;1.80;0.80;;;30.10;45.70;;;;;;7383711;19;20964;-55
2022/09/09 10:35:32;;;;;;;2.97;0.90;;;30.50;45.10;;;;;;7383559;19;20392;-56
2022/09/09 10:38:18;;;;;;;1.73;0.80;;;30.70;44.90;;;;;;7386453;19;20796;-56
2022/09/09 10:41:03;;;;;;;2.53;0.90;;;30.70;44.10;;;;;;7385829;19;20405;-56
2022/09/09 10:43:48;;;;;;;3.87;1.10;;;30.60;43.80;;;;;;7383199;19;20747;-56
2022/09/09 10:46:30;;;;;;;4.30;1.47;;;30.20;44.40;;;;;;7382770;19;21014;-55
2022/09/09 10:49:14;;;;;;;3.13;0.93;;;28.80;46.80;;;;;;7386081;19;20948;-55
2022/09/09 10:51:52;;;;;;;2.73;1.07;;;28.10;48.40;;;;;;7383855;19;20957;-57
2022/09/09 10:54:34;;;;;;;1.50;0.90;;;27.50;50.10;;;;;;7385202;19;20815;-57
2022/09/09 10:57:07;;;;;;;1.77;0.90;;;27.30;50.10;;;;;;7383616;19;20969;-56
2022/09/09 10:59:44;;;;;;;1.80;0.73;;;27.20;50.40;;;;;;7382869;19;20934;-57
2022/09/09 11:02:20;;;;;;;2.00;0.90;;;27.10;50.90;;;;;;7383497;19;20432;-57
2022/09/09 11:04:56;;;;;;;1.77;0.80;;;27.60;50.20;;;;;;7390484;19;20376;-57
2022/09/09 11:07:32;;;;;;;1.50;0.83;;;28.40;49.20;;;;;;7389287;19;20395;-56
2022/09/09 11:10:06;;;;;;;2.17;0.93;;;28.60;48.00;;;;;;7392514;19;20955;-56
2022/09/09 11:12:39;;;;;;;3.70;1.03;;;28.30;48.30;;;;;;7390703;19;20372;-56
2022/09/09 11:15:19;;;;;;;2.30;0.97;;;27.60;49.60;;;;;;7393286;19;20399;-56
2022/09/09 11:17:52;;;;;;;5.70;1.33;;;27.50;50.20;;;;;;7390351;19;21202;-57
2022/09/09 11:20:22;;;;;;;1.77;1.10;;;27.30;49.80;;;;;;7392646;19;20755;-56
2022/09/09 11:22:56;;;;;;;1.63;0.80;;;27.30;48.70;;;;;;7390637;19;20928;-57
2022/09/09 11:25:32;;;;;;;1.80;0.93;;;27.30;47.90;;;;;;7388630;19;20372;-57
2022/09/09 11:28:34;;;;;;;3.20;0.90;;;26.90;46.60;;;;;;7391627;19;20375;-56
2022/09/09 11:31:39;;;;;;;2.90;0.80;;;26.40;46.00;;;;;;7388147;19;20408;-57
2022/09/09 11:34:34;;;;;;;1.57;0.67;;;25.70;46.40;;;;;;7388471;19;20386;-56
2022/09/09 11:37:19;;;;;;;1.63;0.80;;;25.50;47.30;;;;;;7391075;19;20368;-57
2022/09/09 11:40:17;;;;;;;2.50;0.87;;;25.20;47.90;;;;;;7391382;19;20721;-56
2022/09/09 11:42:48;;;;;;;2.33;0.77;;;25.10;48.40;;;;;;7390711;19;21859;-56
2022/09/09 11:45:28;;;;;;;1.47;0.73;;;24.70;49.50;;;;;;7389309;19;20418;-57
2022/09/09 11:48:02;;;;;;;5.17;1.30;;;24.40;49.50;;;;;;7389323;19;20383;-56
2022/09/09 11:50:34;;;;;;;3.17;0.70;;;24.30;50.80;;;;;;7388685;19;20413;-49
2022/09/09 11:53:20;;;;;;;0.70;0.50;;;24.30;50.20;;;;;;7390424;19;20406;-48
2022/09/09 11:55:50;;;;;;;1.60;0.83;;;24.00;50.30;;;;;;7389412;19;20826;-48
2022/09/09 11:58:21;;;;;;;1.87;0.77;;;24.10;50.60;;;;;;7390480;19;20420;-48
2022/09/09 12:00:53;;;;;;;1.10;0.67;;;24.10;50.40;;;;;;7386544;19;20503;-48
2022/09/09 12:03:44;;;;;;;1.50;0.50;;;24.00;50.90;;;;;;7390654;19;20376;-48
2022/09/09 12:06:18;;;;;;;1.53;0.50;;;24.40;50.00;;;;;;7387302;19;20444;-48
2022/09/09 12:08:55;;;;;;;0.87;0.30;;;25.10;49.10;;;;;;7385825;19;20407;-48
2022/09/09 12:11:30;;;;;;;3.13;0.43;;;26.00;47.50;;;;;;7387779;19;20379;-48
2022/09/09 12:14:02;;;;;;;3.77;0.57;;;26.10;46.00;;;;;;7386742;19;20372;-48
2022/09/09 12:16:35;;;;;;;1.47;0.60;;;26.00;46.20;;;;;;7388059;19;20372;-48
2022/09/09 12:19:20;;;;;;;2.10;0.50;;;26.00;46.40;;;;;;7387554;19;20407;-48
2022/09/09 12:21:57;;;;;;;1.20;0.57;;;26.00;46.40;;;;;;7388932;19;20445;-57
2022/09/09 12:24:38;;;;;;;1.23;0.93;;;26.30;47.00;;;;;;7388946;19;20443;-56
2022/09/09 12:27:17;;;;;;;0.63;0.37;;;27.30;45.40;;;;;;7387303;19;20375;-56
2022/09/09 12:29:58;;;;;;;1.70;0.60;;;28.00;44.00;;;;;;7390099;19;20720;-56
2022/09/09 12:32:30;;;;;;;2.07;1.00;;;28.70;42.20;;;;;;7389677;19;20740;-56
2022/09/09 12:35:07;;;;;;;2.50;0.70;;;29.30;40.50;;;;;;7389943;19;20377;-56
2022/09/09 12:37:40;;;;;;;1.23;0.40;;;29.70;38.80;;;;;;7386992;19;20391;-56
2022/09/09 12:40:22;;;;;;;4.67;0.60;;;30.10;37.90;;;;;;7387402;19;21388;-57
2022/09/09 12:42:52;;;;;;;2.20;0.63;;;30.00;37.70;;;;;;7387996;19;20375;-56
2022/09/09 12:45:23;;;;;;;1.27;0.50;;;30.00;37.80;;;;;;7387323;19;20730;-58
2022/09/09 12:47:57;;;;;;;2.03;0.60;;;30.10;37.10;;;;;;7387019;19;20391;-56
2022/09/09 12:50:31;;;;;;;0.60;0.47;;;29.30;38.50;;;;;;7386269;19;20420;-48
2022/09/09 12:53:04;;;;;;;2.03;0.50;;;28.40;40.20;;;;;;7389590;19;20798;-48
2022/09/09 12:55:37;;;;;;;2.57;1.00;;;27.80;41.50;;;;;;7389484;19;20471;-48
2022/09/09 12:58:09;;;;;;;2.17;0.60;;;27.40;42.50;;;;;;7387433;19;21404;-48
2022/09/09 13:00:38;;;;;;;1.37;0.50;;;27.20;43.50;;;;;;7386003;19;20435;-48
2022/09/09 13:03:20;;;;;;;1.43;0.60;;;26.90;44.00;;;;;;7387168;19;21074;-48
2022/09/09 13:05:53;;;;;;;3.97;0.77;;;27.00;44.10;;;;;;7388080;19;20417;-48
2022/09/09 13:08:24;;;;;;;1.20;0.57;;;27.40;43.50;;;;;;7386308;19;20421;-48
2022/09/09 13:10:59;;;;;;;1.20;0.70;;;27.50;43.40;;;;;;7386698;19;20381;-48
2022/09/09 13:13:32;;;;;;;2.00;0.60;;;27.30;43.40;;;;;;7386490;19;20388;-48
2022/09/09 13:16:04;;;;;;;1.60;0.50;;;27.20;43.40;;;;;;7385915;19;20372;-48
2022/09/09 13:18:37;;;;;;;0.73;0.33;;;27.10;43.20;;;;;;7358755;19;20427;-48
2022/09/09 13:21:09;;;;;;;2.40;0.80;;;27.10;43.20;;;;;;7386997;19;20373;-48
2022/09/09 13:23:42;;;;;;;1.17;0.50;;;27.10;44.00;;;;;;7386994;19;20379;-48
2022/09/09 13:26:25;;;;;;;1.90;0.60;;;27.30;43.50;;;;;;7385069;19;20951;-48
2022/09/09 13:28:56;;;;;;;1.13;0.70;;;27.30;43.50;;;;;;7385406;19;20391;-48